sensor_id;sensor_type;location;lat;lon;timestamp;P1;durP1;ratioP1;P2;durP2;ratioP2
20970;SDS011;10644;48.834;10.088;2023-05-14T00:01:16;16.43;;;9.00;;
20970;SDS011;10644;48.834;10.088;2023-05-14T00:03:41;15.40;;;8.90;;
20970;SDS011;10644;48.834;10.088;2023-05-14T00:06:07;17.10;;;8.67;;
20970;SDS011;10644;48.834;10.088;2023-05-14T00:08:33;25.03;;;10.33;;
20970;SDS011;10644;48.834;10.088;2023-05-14T00:10:58;10.63;;;8.00;;
20970;SDS011;10644;48.834;10.088;2023-05-14T00:13:24;14.20;;;8.03;;
20970;SDS011;10644;48.834;10.088;2023-05-14T00:15:50;14.50;;;8.40;;
20970;SDS011;10644;48.834;10.088;2023-05-14T00:18:15;20.73;;;9.80;;
20970;SDS011;10644;48.834;10.088;2023-05-14T00:20:41;13.20;;;7.83;;
20970;SDS011;10644;48.834;10.088;2023-05-14T00:23:06;16.23;;;9.33;;
20970;SDS011;10644;48.834;10.088;2023-05-14T00:25:32;21.30;;;10.80;;
20970;SDS011;10644;48.834;10.088;2023-05-14T00:27:57;19.43;;;9.83;;
20970;SDS011;10644;48.834;10.088;2023-05-14T00:30:23;23.47;;;10.30;;
20970;SDS011;10644;48.834;10.088;2023-05-14T00:32:48;14.37;;;8.47;;
20970;SDS011;10644;48.834;10.088;2023-05-14T00:35:13;12.63;;;7.77;;
20970;SDS011;10644;48.834;10.088;2023-05-14T00:37:39;23.10;;;9.23;;
20970;SDS011;10644;48.834;10.088;2023-05-14T00:40:05;17.10;;;9.27;;
20970;SDS011;10644;48.834;10.088;2023-05-14T00:42:32;11.53;;;8.00;;
20970;SDS011;10644;48.834;10.088;2023-05-14T00:45:00;15.33;;;8.87;;
20970;SDS011;10644;48.834;10.088;2023-05-14T00:47:25;23.23;;;11.23;;
20970;SDS011;10644;48.834;10.088;2023-05-14T00:49:51;19.33;;;10.20;;
20970;SDS011;10644;48.834;10.088;2023-05-14T00:52:17;24.20;;;10.60;;
20970;SDS011;10644;48.834;10.088;2023-05-14T00:54:43;18.23;;;11.10;;
20970;SDS011;10644;48.834;10.088;2023-05-14T00:57:10;20.00;;;10.77;;
20970;SDS011;10644;48.834;10.088;2023-05-14T00:59:38;18.53;;;10.70;;
20970;SDS011;10644;48.834;10.088;2023-05-14T01:02:05;22.23;;;10.67;;
20970;SDS011;10644;48.834;10.088;2023-05-14T01:04:31;24.40;;;10.97;;
20970;SDS011;10644;48.834;10.088;2023-05-14T01:17:13;20.83;;;10.40;;
20970;SDS011;10644;48.834;10.088;2023-05-14T01:19:40;18.83;;;10.50;;
20970;SDS011;10644;48.834;10.088;2023-05-14T01:22:07;17.30;;;10.83;;
20970;SDS011;10644;48.834;10.088;2023-05-14T01:24:33;17.50;;;9.77;;
20970;SDS011;10644;48.834;10.088;2023-05-14T01:27:09;18.73;;;10.20;;
20970;SDS011;10644;48.834;10.088;2023-05-14T01:29:39;15.80;;;9.80;;
20970;SDS011;10644;48.834;10.088;2023-05-14T01:32:09;26.57;;;11.10;;
20970;SDS011;10644;48.834;10.088;2023-05-14T01:34:37;14.20;;;9.40;;
20970;SDS011;10644;48.834;10.088;2023-05-14T01:37:06;15.77;;;10.07;;
20970;SDS011;10644;48.834;10.088;2023-05-14T01:39:34;15.80;;;9.40;;
20970;SDS011;10644;48.834;10.088;2023-05-14T01:42:02;23.40;;;10.70;;
20970;SDS011;10644;48.834;10.088;2023-05-14T01:44:28;25.27;;;10.20;;
20970;SDS011;10644;48.834;10.088;2023-05-14T01:46:54;18.07;;;9.10;;
20970;SDS011;10644;48.834;10.088;2023-05-14T01:49:20;21.17;;;9.90;;
20970;SDS011;10644;48.834;10.088;2023-05-14T01:51:45;18.60;;;9.73;;
20970;SDS011;10644;48.834;10.088;2023-05-14T01:54:11;15.13;;;9.97;;
20970;SDS011;10644;48.834;10.088;2023-05-14T01:56:36;24.13;;;10.97;;
20970;SDS011;10644;48.834;10.088;2023-05-14T01:59:04;20.77;;;11.40;;
20970;SDS011;10644;48.834;10.088;2023-05-14T02:01:29;26.80;;;12.00;;
20970;SDS011;10644;48.834;10.088;2023-05-14T02:03:58;14.70;;;10.40;;
20970;SDS011;10644;48.834;10.088;2023-05-14T02:06:25;25.33;;;12.83;;
20970;SDS011;10644;48.834;10.088;2023-05-14T02:08:50;37.27;;;13.90;;
20970;SDS011;10644;48.834;10.088;2023-05-14T02:11:16;24.40;;;12.87;;
20970;SDS011;10644;48.834;10.088;2023-05-14T02:13:41;19.30;;;12.23;;
20970;SDS011;10644;48.834;10.088;2023-05-14T02:16:07;20.93;;;11.67;;
20970;SDS011;10644;48.834;10.088;2023-05-14T02:18:32;28.93;;;12.50;;
20970;SDS011;10644;48.834;10.088;2023-05-14T02:20:57;19.40;;;12.40;;
20970;SDS011;10644;48.834;10.088;2023-05-14T02:23:23;30.23;;;12.80;;
20970;SDS011;10644;48.834;10.088;2023-05-14T02:25:48;20.47;;;11.97;;
20970;SDS011;10644;48.834;10.088;2023-05-14T02:28:13;20.77;;;11.50;;
20970;SDS011;10644;48.834;10.088;2023-05-14T02:30:39;25.30;;;12.53;;
20970;SDS011;10644;48.834;10.088;2023-05-14T02:33:04;22.20;;;11.90;;
20970;SDS011;10644;48.834;10.088;2023-05-14T02:35:32;24.40;;;13.30;;
20970;SDS011;10644;48.834;10.088;2023-05-14T02:37:58;30.77;;;13.37;;
20970;SDS011;10644;48.834;10.088;2023-05-14T02:40:23;22.13;;;12.20;;
20970;SDS011;10644;48.834;10.088;2023-05-14T02:42:49;19.80;;;11.50;;
20970;SDS011;10644;48.834;10.088;2023-05-14T02:45:14;30.50;;;13.87;;
20970;SDS011;10644;48.834;10.088;2023-05-14T02:47:40;22.80;;;12.90;;
20970;SDS011;10644;48.834;10.088;2023-05-14T02:50:06;25.27;;;14.43;;
20970;SDS011;10644;48.834;10.088;2023-05-14T02:52:32;27.13;;;13.43;;
20970;SDS011;10644;48.834;10.088;2023-05-14T02:54:57;26.03;;;13.30;;
20970;SDS011;10644;48.834;10.088;2023-05-14T02:57:22;47.07;;;16.77;;
20970;SDS011;10644;48.834;10.088;2023-05-14T02:59:48;23.50;;;13.00;;
20970;SDS011;10644;48.834;10.088;2023-05-14T03:02:13;25.60;;;12.90;;
20970;SDS011;10644;48.834;10.088;2023-05-14T03:04:39;18.97;;;11.53;;
20970;SDS011;10644;48.834;10.088;2023-05-14T03:07:04;18.73;;;12.83;;
20970;SDS011;10644;48.834;10.088;2023-05-14T03:09:30;23.83;;;13.83;;
20970;SDS011;10644;48.834;10.088;2023-05-14T03:11:55;20.67;;;11.33;;
20970;SDS011;10644;48.834;10.088;2023-05-14T03:14:20;17.17;;;10.77;;
20970;SDS011;10644;48.834;10.088;2023-05-14T03:16:46;26.10;;;12.83;;
20970;SDS011;10644;48.834;10.088;2023-05-14T03:19:11;22.73;;;12.13;;
20970;SDS011;10644;48.834;10.088;2023-05-14T03:21:36;18.87;;;11.50;;
20970;SDS011;10644;48.834;10.088;2023-05-14T03:24:02;21.90;;;11.93;;
20970;SDS011;10644;48.834;10.088;2023-05-14T03:26:28;25.30;;;13.33;;
20970;SDS011;10644;48.834;10.088;2023-05-14T03:28:53;23.07;;;12.93;;
20970;SDS011;10644;48.834;10.088;2023-05-14T03:31:18;26.03;;;14.10;;
20970;SDS011;10644;48.834;10.088;2023-05-14T03:33:44;22.97;;;12.90;;
20970;SDS011;10644;48.834;10.088;2023-05-14T03:36:09;29.60;;;14.20;;
20970;SDS011;10644;48.834;10.088;2023-05-14T03:38:37;22.80;;;13.77;;
20970;SDS011;10644;48.834;10.088;2023-05-14T03:41:05;18.63;;;11.30;;
20970;SDS011;10644;48.834;10.088;2023-05-14T03:43:30;25.90;;;13.10;;
20970;SDS011;10644;48.834;10.088;2023-05-14T03:45:55;22.03;;;12.23;;
20970;SDS011;10644;48.834;10.088;2023-05-14T03:48:21;23.93;;;13.30;;
20970;SDS011;10644;48.834;10.088;2023-05-14T03:50:46;25.03;;;13.00;;
20970;SDS011;10644;48.834;10.088;2023-05-14T03:53:12;24.80;;;12.80;;
20970;SDS011;10644;48.834;10.088;2023-05-14T03:55:37;35.10;;;14.47;;
20970;SDS011;10644;48.834;10.088;2023-05-14T03:58:03;24.07;;;11.73;;
20970;SDS011;10644;48.834;10.088;2023-05-14T04:00:33;23.50;;;12.43;;
20970;SDS011;10644;48.834;10.088;2023-05-14T04:02:59;23.47;;;12.30;;
20970;SDS011;10644;48.834;10.088;2023-05-14T04:05:25;25.40;;;12.03;;
20970;SDS011;10644;48.834;10.088;2023-05-14T04:07:50;28.13;;;12.67;;
20970;SDS011;10644;48.834;10.088;2023-05-14T04:10:16;27.07;;;13.20;;
20970;SDS011;10644;48.834;10.088;2023-05-14T04:12:42;26.10;;;12.77;;
20970;SDS011;10644;48.834;10.088;2023-05-14T04:15:09;41.60;;;15.47;;
20970;SDS011;10644;48.834;10.088;2023-05-14T04:17:38;29.40;;;13.70;;
20970;SDS011;10644;48.834;10.088;2023-05-14T04:20:03;20.90;;;13.50;;
20970;SDS011;10644;48.834;10.088;2023-05-14T04:22:29;22.70;;;13.20;;
20970;SDS011;10644;48.834;10.088;2023-05-14T04:24:54;29.37;;;13.93;;
20970;SDS011;10644;48.834;10.088;2023-05-14T04:27:20;49.23;;;15.23;;
20970;SDS011;10644;48.834;10.088;2023-05-14T04:29:45;23.80;;;13.87;;
20970;SDS011;10644;48.834;10.088;2023-05-14T04:32:11;31.40;;;13.30;;
20970;SDS011;10644;48.834;10.088;2023-05-14T04:34:36;20.60;;;13.20;;
20970;SDS011;10644;48.834;10.088;2023-05-14T04:37:02;25.47;;;14.87;;
20970;SDS011;10644;48.834;10.088;2023-05-14T04:39:28;28.53;;;14.87;;
20970;SDS011;10644;48.834;10.088;2023-05-14T04:41:53;19.13;;;12.03;;
20970;SDS011;10644;48.834;10.088;2023-05-14T04:44:19;22.37;;;13.23;;
20970;SDS011;10644;48.834;10.088;2023-05-14T04:46:44;26.23;;;13.40;;
20970;SDS011;10644;48.834;10.088;2023-05-14T04:49:10;25.10;;;13.90;;
20970;SDS011;10644;48.834;10.088;2023-05-14T04:51:35;23.80;;;13.13;;
20970;SDS011;10644;48.834;10.088;2023-05-14T04:54:00;27.00;;;13.87;;
20970;SDS011;10644;48.834;10.088;2023-05-14T04:56:26;21.20;;;13.33;;
20970;SDS011;10644;48.834;10.088;2023-05-14T04:58:51;24.60;;;13.67;;
20970;SDS011;10644;48.834;10.088;2023-05-14T05:01:19;23.13;;;13.17;;
20970;SDS011;10644;48.834;10.088;2023-05-14T05:03:46;27.13;;;14.03;;
20970;SDS011;10644;48.834;10.088;2023-05-14T05:06:11;21.67;;;13.10;;
20970;SDS011;10644;48.834;10.088;2023-05-14T05:08:36;29.57;;;13.40;;
20970;SDS011;10644;48.834;10.088;2023-05-14T05:11:02;29.93;;;13.40;;
20970;SDS011;10644;48.834;10.088;2023-05-14T05:13:28;21.90;;;13.00;;
20970;SDS011;10644;48.834;10.088;2023-05-14T05:15:56;19.67;;;13.87;;
20970;SDS011;10644;48.834;10.088;2023-05-14T05:18:29;24.73;;;13.23;;
20970;SDS011;10644;48.834;10.088;2023-05-14T05:20:58;52.57;;;17.07;;
20970;SDS011;10644;48.834;10.088;2023-05-14T05:23:23;50.87;;;17.13;;
20970;SDS011;10644;48.834;10.088;2023-05-14T05:25:49;21.27;;;12.93;;
20970;SDS011;10644;48.834;10.088;2023-05-14T05:28:17;27.00;;;15.17;;
20970;SDS011;10644;48.834;10.088;2023-05-14T05:30:47;45.63;;;15.87;;
20970;SDS011;10644;48.834;10.088;2023-05-14T05:33:13;22.97;;;12.87;;
20970;SDS011;10644;48.834;10.088;2023-05-14T05:35:38;57.57;;;17.27;;
20970;SDS011;10644;48.834;10.088;2023-05-14T05:38:04;47.50;;;15.73;;
20970;SDS011;10644;48.834;10.088;2023-05-14T05:40:32;21.83;;;14.00;;
20970;SDS011;10644;48.834;10.088;2023-05-14T05:43:01;44.87;;;17.57;;
20970;SDS011;10644;48.834;10.088;2023-05-14T05:45:29;31.43;;;15.10;;
20970;SDS011;10644;48.834;10.088;2023-05-14T05:47:55;44.30;;;16.20;;
20970;SDS011;10644;48.834;10.088;2023-05-14T05:50:20;25.87;;;14.30;;
20970;SDS011;10644;48.834;10.088;2023-05-14T05:52:46;24.30;;;14.27;;
20970;SDS011;10644;48.834;10.088;2023-05-14T05:55:11;41.33;;;16.00;;
20970;SDS011;10644;48.834;10.088;2023-05-14T05:57:39;25.70;;;13.50;;
20970;SDS011;10644;48.834;10.088;2023-05-14T06:00:08;25.83;;;14.97;;
20970;SDS011;10644;48.834;10.088;2023-05-14T06:02:40;32.13;;;14.60;;
20970;SDS011;10644;48.834;10.088;2023-05-14T06:05:07;22.30;;;13.60;;
20970;SDS011;10644;48.834;10.088;2023-05-14T06:07:33;22.80;;;13.83;;
20970;SDS011;10644;48.834;10.088;2023-05-14T06:10:02;29.57;;;14.57;;
20970;SDS011;10644;48.834;10.088;2023-05-14T06:12:27;26.37;;;12.60;;
20970;SDS011;10644;48.834;10.088;2023-05-14T06:14:53;20.03;;;12.93;;
20970;SDS011;10644;48.834;10.088;2023-05-14T06:17:19;33.87;;;15.40;;
20970;SDS011;10644;48.834;10.088;2023-05-14T06:19:45;24.90;;;14.43;;
20970;SDS011;10644;48.834;10.088;2023-05-14T06:22:11;20.50;;;14.53;;
20970;SDS011;10644;48.834;10.088;2023-05-14T06:24:36;20.27;;;14.43;;
20970;SDS011;10644;48.834;10.088;2023-05-14T06:27:02;27.27;;;15.30;;
20970;SDS011;10644;48.834;10.088;2023-05-14T06:29:27;23.50;;;13.90;;
20970;SDS011;10644;48.834;10.088;2023-05-14T06:31:52;23.20;;;14.10;;
20970;SDS011;10644;48.834;10.088;2023-05-14T06:34:18;29.20;;;14.40;;
20970;SDS011;10644;48.834;10.088;2023-05-14T06:36:43;21.70;;;14.03;;
20970;SDS011;10644;48.834;10.088;2023-05-14T06:39:09;20.93;;;13.27;;
20970;SDS011;10644;48.834;10.088;2023-05-14T06:41:34;23.40;;;14.03;;
20970;SDS011;10644;48.834;10.088;2023-05-14T06:43:59;26.83;;;14.57;;
20970;SDS011;10644;48.834;10.088;2023-05-14T06:46:25;20.37;;;13.73;;
20970;SDS011;10644;48.834;10.088;2023-05-14T06:48:50;24.17;;;14.27;;
20970;SDS011;10644;48.834;10.088;2023-05-14T06:51:15;20.87;;;13.33;;
20970;SDS011;10644;48.834;10.088;2023-05-14T06:53:41;21.40;;;13.67;;
20970;SDS011;10644;48.834;10.088;2023-05-14T06:56:06;24.60;;;13.93;;
20970;SDS011;10644;48.834;10.088;2023-05-14T06:58:32;25.40;;;14.47;;
20970;SDS011;10644;48.834;10.088;2023-05-14T07:00:57;22.03;;;14.90;;
20970;SDS011;10644;48.834;10.088;2023-05-14T07:03:24;22.20;;;14.20;;
20970;SDS011;10644;48.834;10.088;2023-05-14T07:05:49;19.93;;;13.90;;
20970;SDS011;10644;48.834;10.088;2023-05-14T07:08:15;20.50;;;13.63;;
20970;SDS011;10644;48.834;10.088;2023-05-14T07:10:41;18.40;;;12.70;;
20970;SDS011;10644;48.834;10.088;2023-05-14T07:13:06;22.40;;;13.53;;
20970;SDS011;10644;48.834;10.088;2023-05-14T07:15:32;25.20;;;12.40;;
20970;SDS011;10644;48.834;10.088;2023-05-14T07:17:57;25.97;;;12.90;;
20970;SDS011;10644;48.834;10.088;2023-05-14T07:20:23;16.10;;;10.70;;
20970;SDS011;10644;48.834;10.088;2023-05-14T07:22:49;19.00;;;12.70;;
20970;SDS011;10644;48.834;10.088;2023-05-14T07:25:14;22.37;;;12.23;;
20970;SDS011;10644;48.834;10.088;2023-05-14T07:27:40;19.50;;;13.00;;
20970;SDS011;10644;48.834;10.088;2023-05-14T07:30:06;16.87;;;12.17;;
20970;SDS011;10644;48.834;10.088;2023-05-14T07:32:32;18.30;;;11.87;;
20970;SDS011;10644;48.834;10.088;2023-05-14T07:34:57;21.03;;;12.23;;
20970;SDS011;10644;48.834;10.088;2023-05-14T07:37:23;31.03;;;13.60;;
20970;SDS011;10644;48.834;10.088;2023-05-14T07:39:50;20.37;;;12.50;;
20970;SDS011;10644;48.834;10.088;2023-05-14T07:42:16;21.70;;;12.67;;
20970;SDS011;10644;48.834;10.088;2023-05-14T07:44:44;20.43;;;12.97;;
20970;SDS011;10644;48.834;10.088;2023-05-14T07:47:10;15.60;;;10.77;;
20970;SDS011;10644;48.834;10.088;2023-05-14T07:49:35;14.87;;;10.90;;
20970;SDS011;10644;48.834;10.088;2023-05-14T07:52:00;16.60;;;11.43;;
20970;SDS011;10644;48.834;10.088;2023-05-14T07:54:26;18.13;;;10.60;;
20970;SDS011;10644;48.834;10.088;2023-05-14T07:56:51;13.90;;;9.70;;
20970;SDS011;10644;48.834;10.088;2023-05-14T07:59:17;15.60;;;10.20;;
20970;SDS011;10644;48.834;10.088;2023-05-14T08:01:42;16.37;;;10.27;;
20970;SDS011;10644;48.834;10.088;2023-05-14T08:04:08;17.60;;;10.00;;
20970;SDS011;10644;48.834;10.088;2023-05-14T08:06:35;13.20;;;8.57;;
20970;SDS011;10644;48.834;10.088;2023-05-14T08:09:01;11.30;;;9.30;;
20970;SDS011;10644;48.834;10.088;2023-05-14T08:11:26;13.27;;;9.83;;
20970;SDS011;10644;48.834;10.088;2023-05-14T08:13:51;14.30;;;10.00;;
20970;SDS011;10644;48.834;10.088;2023-05-14T08:16:17;15.73;;;10.60;;
20970;SDS011;10644;48.834;10.088;2023-05-14T08:18:42;14.93;;;9.60;;
20970;SDS011;10644;48.834;10.088;2023-05-14T08:21:07;16.37;;;10.43;;
20970;SDS011;10644;48.834;10.088;2023-05-14T08:23:33;11.00;;;8.20;;
20970;SDS011;10644;48.834;10.088;2023-05-14T08:25:58;12.87;;;9.03;;
20970;SDS011;10644;48.834;10.088;2023-05-14T08:28:24;9.67;;;7.03;;
20970;SDS011;10644;48.834;10.088;2023-05-14T08:30:49;9.80;;;6.77;;
20970;SDS011;10644;48.834;10.088;2023-05-14T08:33:15;27.50;;;6.17;;
20970;SDS011;10644;48.834;10.088;2023-05-14T08:35:42;8.50;;;6.47;;
20970;SDS011;10644;48.834;10.088;2023-05-14T08:38:07;9.40;;;6.30;;
20970;SDS011;10644;48.834;10.088;2023-05-14T08:40:32;14.07;;;6.50;;
20970;SDS011;10644;48.834;10.088;2023-05-14T08:42:58;10.37;;;6.27;;
20970;SDS011;10644;48.834;10.088;2023-05-14T08:45:27;9.90;;;6.50;;
20970;SDS011;10644;48.834;10.088;2023-05-14T08:47:58;14.07;;;6.37;;
20970;SDS011;10644;48.834;10.088;2023-05-14T08:50:25;7.03;;;5.90;;
20970;SDS011;10644;48.834;10.088;2023-05-14T08:52:51;6.53;;;5.37;;
20970;SDS011;10644;48.834;10.088;2023-05-14T08:55:17;8.30;;;5.40;;
20970;SDS011;10644;48.834;10.088;2023-05-14T08:57:43;9.00;;;5.77;;
20970;SDS011;10644;48.834;10.088;2023-05-14T09:00:10;10.13;;;6.37;;
20970;SDS011;10644;48.834;10.088;2023-05-14T09:02:36;13.73;;;5.40;;
20970;SDS011;10644;48.834;10.088;2023-05-14T09:05:06;7.60;;;5.43;;
20970;SDS011;10644;48.834;10.088;2023-05-14T09:07:33;9.43;;;6.13;;
20970;SDS011;10644;48.834;10.088;2023-05-14T09:09:59;9.50;;;6.20;;
20970;SDS011;10644;48.834;10.088;2023-05-14T09:12:27;11.43;;;6.23;;
20970;SDS011;10644;48.834;10.088;2023-05-14T09:14:55;9.90;;;6.57;;
20970;SDS011;10644;48.834;10.088;2023-05-14T09:17:21;11.13;;;7.53;;
20970;SDS011;10644;48.834;10.088;2023-05-14T09:19:52;9.30;;;6.50;;
20970;SDS011;10644;48.834;10.088;2023-05-14T09:22:18;10.60;;;6.93;;
20970;SDS011;10644;48.834;10.088;2023-05-14T09:24:44;12.53;;;8.13;;
20970;SDS011;10644;48.834;10.088;2023-05-14T09:27:18;11.63;;;6.90;;
20970;SDS011;10644;48.834;10.088;2023-05-14T09:29:45;10.30;;;7.63;;
20970;SDS011;10644;48.834;10.088;2023-05-14T09:32:12;10.80;;;7.77;;
20970;SDS011;10644;48.834;10.088;2023-05-14T09:34:37;9.50;;;7.43;;
20970;SDS011;10644;48.834;10.088;2023-05-14T09:37:07;11.70;;;7.73;;
20970;SDS011;10644;48.834;10.088;2023-05-14T09:39:34;14.93;;;7.83;;
20970;SDS011;10644;48.834;10.088;2023-05-14T09:42:05;11.97;;;7.47;;
20970;SDS011;10644;48.834;10.088;2023-05-14T09:44:30;18.97;;;7.30;;
20970;SDS011;10644;48.834;10.088;2023-05-14T09:46:56;7.90;;;6.27;;
20970;SDS011;10644;48.834;10.088;2023-05-14T09:49:21;11.83;;;7.30;;
20970;SDS011;10644;48.834;10.088;2023-05-14T09:51:47;10.27;;;6.60;;
20970;SDS011;10644;48.834;10.088;2023-05-14T09:54:13;11.37;;;7.77;;
20970;SDS011;10644;48.834;10.088;2023-05-14T09:56:38;10.83;;;7.53;;
20970;SDS011;10644;48.834;10.088;2023-05-14T09:59:04;12.43;;;7.50;;
20970;SDS011;10644;48.834;10.088;2023-05-14T10:01:30;10.20;;;7.50;;
20970;SDS011;10644;48.834;10.088;2023-05-14T10:03:56;10.40;;;7.50;;
20970;SDS011;10644;48.834;10.088;2023-05-14T10:06:24;6.83;;;5.80;;
20970;SDS011;10644;48.834;10.088;2023-05-14T10:08:55;7.63;;;5.70;;
20970;SDS011;10644;48.834;10.088;2023-05-14T10:11:26;9.37;;;6.17;;
20970;SDS011;10644;48.834;10.088;2023-05-14T10:13:58;10.63;;;6.43;;
20970;SDS011;10644;48.834;10.088;2023-05-14T10:16:30;8.43;;;6.10;;
20970;SDS011;10644;48.834;10.088;2023-05-14T10:19:08;13.53;;;7.20;;
20970;SDS011;10644;48.834;10.088;2023-05-14T10:21:35;14.57;;;6.90;;
20970;SDS011;10644;48.834;10.088;2023-05-14T10:24:05;7.43;;;5.90;;
20970;SDS011;10644;48.834;10.088;2023-05-14T10:26:31;9.00;;;6.10;;
20970;SDS011;10644;48.834;10.088;2023-05-14T10:29:04;5.90;;;5.10;;
20970;SDS011;10644;48.834;10.088;2023-05-14T10:37:11;10.83;;;8.30;;
20970;SDS011;10644;48.834;10.088;2023-05-14T10:42:05;10.83;;;6.20;;
20970;SDS011;10644;48.834;10.088;2023-05-14T10:44:32;10.60;;;6.20;;
20970;SDS011;10644;48.834;10.088;2023-05-14T10:47:00;10.37;;;6.67;;
20970;SDS011;10644;48.834;10.088;2023-05-14T10:49:26;12.63;;;7.20;;
20970;SDS011;10644;48.834;10.088;2023-05-14T10:51:52;8.27;;;6.40;;
20970;SDS011;10644;48.834;10.088;2023-05-14T10:54:17;9.80;;;6.50;;
20970;SDS011;10644;48.834;10.088;2023-05-14T10:56:46;9.00;;;6.13;;
20970;SDS011;10644;48.834;10.088;2023-05-14T10:59:15;7.87;;;6.20;;
20970;SDS011;10644;48.834;10.088;2023-05-14T11:01:44;9.87;;;6.53;;
20970;SDS011;10644;48.834;10.088;2023-05-14T11:04:16;15.27;;;6.77;;
20970;SDS011;10644;48.834;10.088;2023-05-14T11:06:43;7.53;;;5.33;;
20970;SDS011;10644;48.834;10.088;2023-05-14T11:09:11;7.87;;;5.70;;
20970;SDS011;10644;48.834;10.088;2023-05-14T11:11:39;8.70;;;5.47;;
20970;SDS011;10644;48.834;10.088;2023-05-14T11:14:05;8.10;;;6.50;;
20970;SDS011;10644;48.834;10.088;2023-05-14T11:16:30;9.77;;;6.73;;
20970;SDS011;10644;48.834;10.088;2023-05-14T11:18:59;6.07;;;4.20;;
20970;SDS011;10644;48.834;10.088;2023-05-14T11:21:27;7.77;;;5.40;;
20970;SDS011;10644;48.834;10.088;2023-05-14T11:23:53;5.70;;;4.20;;
20970;SDS011;10644;48.834;10.088;2023-05-14T11:26:19;4.70;;;4.17;;
20970;SDS011;10644;48.834;10.088;2023-05-14T11:28:45;12.07;;;5.90;;
20970;SDS011;10644;48.834;10.088;2023-05-14T11:31:10;5.23;;;4.20;;
20970;SDS011;10644;48.834;10.088;2023-05-14T11:33:38;7.60;;;5.50;;
20970;SDS011;10644;48.834;10.088;2023-05-14T11:36:04;15.50;;;6.40;;
20970;SDS011;10644;48.834;10.088;2023-05-14T11:38:32;7.53;;;5.30;;
20970;SDS011;10644;48.834;10.088;2023-05-14T11:40:58;13.67;;;6.00;;
20970;SDS011;10644;48.834;10.088;2023-05-14T11:43:23;7.43;;;5.60;;
20970;SDS011;10644;48.834;10.088;2023-05-14T11:45:50;12.53;;;5.90;;
20970;SDS011;10644;48.834;10.088;2023-05-14T11:48:19;8.70;;;5.60;;
20970;SDS011;10644;48.834;10.088;2023-05-14T11:50:49;6.03;;;5.43;;
20970;SDS011;10644;48.834;10.088;2023-05-14T11:53:23;7.20;;;5.60;;
20970;SDS011;10644;48.834;10.088;2023-05-14T11:55:51;7.07;;;5.40;;
20970;SDS011;10644;48.834;10.088;2023-05-14T11:58:18;6.47;;;4.80;;
20970;SDS011;10644;48.834;10.088;2023-05-14T12:00:54;9.03;;;5.63;;
20970;SDS011;10644;48.834;10.088;2023-05-14T12:03:19;7.03;;;5.37;;
20970;SDS011;10644;48.834;10.088;2023-05-14T12:05:59;7.30;;;5.03;;
20970;SDS011;10644;48.834;10.088;2023-05-14T12:08:27;5.57;;;4.90;;
20970;SDS011;10644;48.834;10.088;2023-05-14T12:10:54;7.73;;;5.10;;
20970;SDS011;10644;48.834;10.088;2023-05-14T12:13:20;12.70;;;6.13;;
20970;SDS011;10644;48.834;10.088;2023-05-14T12:15:47;11.33;;;5.83;;
20970;SDS011;10644;48.834;10.088;2023-05-14T12:18:18;7.90;;;5.33;;
20970;SDS011;10644;48.834;10.088;2023-05-14T12:20:47;7.40;;;5.00;;
20970;SDS011;10644;48.834;10.088;2023-05-14T12:23:13;5.50;;;4.80;;
20970;SDS011;10644;48.834;10.088;2023-05-14T12:25:39;9.23;;;5.30;;
20970;SDS011;10644;48.834;10.088;2023-05-14T12:28:14;7.63;;;5.23;;
20970;SDS011;10644;48.834;10.088;2023-05-14T12:30:40;7.57;;;5.33;;
20970;SDS011;10644;48.834;10.088;2023-05-14T12:33:05;11.60;;;6.20;;
20970;SDS011;10644;48.834;10.088;2023-05-14T12:35:31;6.43;;;5.20;;
20970;SDS011;10644;48.834;10.088;2023-05-14T12:37:56;8.17;;;5.70;;
20970;SDS011;10644;48.834;10.088;2023-05-14T12:40:22;9.00;;;5.50;;
20970;SDS011;10644;48.834;10.088;2023-05-14T12:42:47;8.80;;;5.53;;
20970;SDS011;10644;48.834;10.088;2023-05-14T12:45:13;8.10;;;5.40;;
20970;SDS011;10644;48.834;10.088;2023-05-14T12:47:40;7.53;;;4.77;;
20970;SDS011;10644;48.834;10.088;2023-05-14T12:50:06;6.60;;;5.30;;
20970;SDS011;10644;48.834;10.088;2023-05-14T12:52:31;6.90;;;5.73;;
20970;SDS011;10644;48.834;10.088;2023-05-14T12:54:57;8.93;;;5.87;;
20970;SDS011;10644;48.834;10.088;2023-05-14T12:57:22;8.37;;;5.73;;
20970;SDS011;10644;48.834;10.088;2023-05-14T12:59:48;8.80;;;6.50;;
20970;SDS011;10644;48.834;10.088;2023-05-14T13:02:13;11.83;;;7.30;;
20970;SDS011;10644;48.834;10.088;2023-05-14T13:04:40;10.47;;;5.40;;
20970;SDS011;10644;48.834;10.088;2023-05-14T13:07:05;12.23;;;6.37;;
20970;SDS011;10644;48.834;10.088;2023-05-14T13:09:32;14.13;;;6.00;;
20970;SDS011;10644;48.834;10.088;2023-05-14T13:12:00;11.43;;;6.27;;
20970;SDS011;10644;48.834;10.088;2023-05-14T13:14:25;11.27;;;5.57;;
20970;SDS011;10644;48.834;10.088;2023-05-14T13:16:50;6.53;;;5.23;;
20970;SDS011;10644;48.834;10.088;2023-05-14T13:19:16;11.63;;;5.83;;
20970;SDS011;10644;48.834;10.088;2023-05-14T13:21:41;10.00;;;6.27;;
20970;SDS011;10644;48.834;10.088;2023-05-14T13:24:07;10.57;;;6.40;;
20970;SDS011;10644;48.834;10.088;2023-05-14T13:26:34;17.57;;;6.93;;
20970;SDS011;10644;48.834;10.088;2023-05-14T13:29:00;8.70;;;5.77;;
20970;SDS011;10644;48.834;10.088;2023-05-14T13:31:26;8.53;;;5.77;;
20970;SDS011;10644;48.834;10.088;2023-05-14T13:33:51;10.43;;;5.87;;
20970;SDS011;10644;48.834;10.088;2023-05-14T13:36:17;8.53;;;5.70;;
20970;SDS011;10644;48.834;10.088;2023-05-14T13:38:42;7.17;;;4.67;;
20970;SDS011;10644;48.834;10.088;2023-05-14T13:41:09;11.43;;;5.80;;
20970;SDS011;10644;48.834;10.088;2023-05-14T13:43:35;7.80;;;4.63;;
20970;SDS011;10644;48.834;10.088;2023-05-14T13:46:01;5.63;;;4.63;;
20970;SDS011;10644;48.834;10.088;2023-05-14T13:48:28;10.63;;;5.60;;
20970;SDS011;10644;48.834;10.088;2023-05-14T13:50:54;11.63;;;5.70;;
20970;SDS011;10644;48.834;10.088;2023-05-14T13:53:21;6.37;;;5.70;;
20970;SDS011;10644;48.834;10.088;2023-05-14T13:55:49;11.20;;;5.20;;
20970;SDS011;10644;48.834;10.088;2023-05-14T13:58:20;8.03;;;5.67;;
20970;SDS011;10644;48.834;10.088;2023-05-14T14:00:45;9.00;;;4.80;;
20970;SDS011;10644;48.834;10.088;2023-05-14T14:03:11;12.73;;;5.80;;
20970;SDS011;10644;48.834;10.088;2023-05-14T14:05:36;12.00;;;5.40;;
20970;SDS011;10644;48.834;10.088;2023-05-14T14:08:01;13.53;;;5.63;;
20970;SDS011;10644;48.834;10.088;2023-05-14T14:10:27;13.63;;;5.20;;
20970;SDS011;10644;48.834;10.088;2023-05-14T14:12:52;17.20;;;4.40;;
20970;SDS011;10644;48.834;10.088;2023-05-14T14:15:18;9.57;;;5.07;;
20970;SDS011;10644;48.834;10.088;2023-05-14T14:17:43;12.13;;;5.40;;
20970;SDS011;10644;48.834;10.088;2023-05-14T14:20:09;11.43;;;6.13;;
20970;SDS011;10644;48.834;10.088;2023-05-14T14:22:35;6.10;;;4.60;;
20970;SDS011;10644;48.834;10.088;2023-05-14T14:25:01;10.93;;;5.57;;
20970;SDS011;10644;48.834;10.088;2023-05-14T14:27:27;8.97;;;3.80;;
20970;SDS011;10644;48.834;10.088;2023-05-14T14:29:55;7.43;;;4.50;;
20970;SDS011;10644;48.834;10.088;2023-05-14T14:32:20;8.27;;;4.80;;